sensor_id;sensor_type;location;lat;lon;timestamp;temperature;humidity
22130;DHT22;11231;50.746;4.272;2023-07-13T00:00:26;18.20;99.90
22130;DHT22;11231;50.746;4.272;2023-07-13T00:02:52;18.20;99.90
22130;DHT22;11231;50.746;4.272;2023-07-13T00:05:22;18.20;99.90
22130;DHT22;11231;50.746;4.272;2023-07-13T00:07:50;18.10;99.90
22130;DHT22;11231;50.746;4.272;2023-07-13T00:10:16;18.00;99.90
22130;DHT22;11231;50.746;4.272;2023-07-13T00:12:41;17.90;99.90
22130;DHT22;11231;50.746;4.272;2023-07-13T00:15:14;17.80;99.90
22130;DHT22;11231;50.746;4.272;2023-07-13T00:17:42;17.80;99.90
22130;DHT22;11231;50.746;4.272;2023-07-13T00:20:11;17.80;99.90
22130;DHT22;11231;50.746;4.272;2023-07-13T00:22:37;17.80;99.90
22130;DHT22;11231;50.746;4.272;2023-07-13T00:25:03;17.70;99.90
22130;DHT22;11231;50.746;4.272;2023-07-13T00:27:28;17.60;99.90
22130;DHT22;11231;50.746;4.272;2023-07-13T00:29:58;17.60;99.90
22130;DHT22;11231;50.746;4.272;2023-07-13T00:32:24;17.60;99.90
22130;DHT22;11231;50.746;4.272;2023-07-13T00:34:53;17.70;99.90
22130;DHT22;11231;50.746;4.272;2023-07-13T00:37:19;17.70;99.90
22130;DHT22;11231;50.746;4.272;2023-07-13T00:39:44;17.70;99.90
22130;DHT22;11231;50.746;4.272;2023-07-13T00:42:10;17.60;99.90
22130;DHT22;11231;50.746;4.272;2023-07-13T00:44:36;17.60;99.90
22130;DHT22;11231;50.746;4.272;2023-07-13T00:47:02;17.70;99.90
22130;DHT22;11231;50.746;4.272;2023-07-13T00:49:30;17.60;99.90
22130;DHT22;11231;50.746;4.272;2023-07-13T00:52:03;17.60;99.90
22130;DHT22;11231;50.746;4.272;2023-07-13T00:54:38;17.70;99.90
22130;DHT22;11231;50.746;4.272;2023-07-13T00:57:08;17.60;99.90
22130;DHT22;11231;50.746;4.272;2023-07-13T00:59:36;17.50;99.90
22130;DHT22;11231;50.746;4.272;2023-07-13T01:02:03;17.50;99.90
22130;DHT22;11231;50.746;4.272;2023-07-13T01:04:29;17.40;99.90
22130;DHT22;11231;50.746;4.272;2023-07-13T01:06:56;17.40;99.90
22130;DHT22;11231;50.746;4.272;2023-07-13T01:09:22;17.40;99.90
22130;DHT22;11231;50.746;4.272;2023-07-13T01:11:48;17.30;99.90
22130;DHT22;11231;50.746;4.272;2023-07-13T01:14:15;17.20;99.90
22130;DHT22;11231;50.746;4.272;2023-07-13T01:16:44;17.20;99.90
22130;DHT22;11231;50.746;4.272;2023-07-13T01:19:32;17.20;99.90
22130;DHT22;11231;50.746;4.272;2023-07-13T01:22:06;17.30;99.90
22130;DHT22;11231;50.746;4.272;2023-07-13T01:24:35;17.20;99.90
22130;DHT22;11231;50.746;4.272;2023-07-13T01:27:02;17.10;99.90
22130;DHT22;11231;50.746;4.272;2023-07-13T01:29:30;17.10;99.90
22130;DHT22;11231;50.746;4.272;2023-07-13T01:31:56;17.10;99.90
22130;DHT22;11231;50.746;4.272;2023-07-13T01:34:25;17.10;99.90
22130;DHT22;11231;50.746;4.272;2023-07-13T01:36:50;17.20;99.90
22130;DHT22;11231;50.746;4.272;2023-07-13T01:39:21;17.20;99.90
22130;DHT22;11231;50.746;4.272;2023-07-13T01:41:47;17.20;99.90
22130;DHT22;11231;50.746;4.272;2023-07-13T01:44:13;17.20;99.90
22130;DHT22;11231;50.746;4.272;2023-07-13T01:46:39;17.20;99.90
22130;DHT22;11231;50.746;4.272;2023-07-13T01:49:05;17.20;99.90
22130;DHT22;11231;50.746;4.272;2023-07-13T01:51:30;17.10;99.90
22130;DHT22;11231;50.746;4.272;2023-07-13T01:53:56;17.10;99.90
22130;DHT22;11231;50.746;4.272;2023-07-13T01:56:23;17.00;99.90
22130;DHT22;11231;50.746;4.272;2023-07-13T01:58:48;17.00;99.90
22130;DHT22;11231;50.746;4.272;2023-07-13T02:01:15;16.90;99.90
22130;DHT22;11231;50.746;4.272;2023-07-13T02:03:41;16.90;99.90
22130;DHT22;11231;50.746;4.272;2023-07-13T02:06:07;16.90;99.90
22130;DHT22;11231;50.746;4.272;2023-07-13T02:08:33;16.80;99.90
22130;DHT22;11231;50.746;4.272;2023-07-13T02:10:59;16.90;99.90
22130;DHT22;11231;50.746;4.272;2023-07-13T02:13:25;16.90;99.90
22130;DHT22;11231;50.746;4.272;2023-07-13T02:15:51;16.90;99.90
22130;DHT22;11231;50.746;4.272;2023-07-13T02:18:17;16.90;99.90
22130;DHT22;11231;50.746;4.272;2023-07-13T02:20:44;16.80;99.90
22130;DHT22;11231;50.746;4.272;2023-07-13T02:23:10;16.80;99.90
22130;DHT22;11231;50.746;4.272;2023-07-13T02:25:36;16.80;99.90
22130;DHT22;11231;50.746;4.272;2023-07-13T02:28:02;16.80;99.90
22130;DHT22;11231;50.746;4.272;2023-07-13T02:30:30;16.80;99.90
22130;DHT22;11231;50.746;4.272;2023-07-13T02:32:57;16.70;99.90
22130;DHT22;11231;50.746;4.272;2023-07-13T02:35:23;16.70;99.90
22130;DHT22;11231;50.746;4.272;2023-07-13T02:37:48;16.70;99.90
22130;DHT22;11231;50.746;4.272;2023-07-13T02:40:14;16.70;99.90
22130;DHT22;11231;50.746;4.272;2023-07-13T02:42:40;16.80;99.90
22130;DHT22;11231;50.746;4.272;2023-07-13T02:45:07;16.70;99.90
22130;DHT22;11231;50.746;4.272;2023-07-13T02:47:34;16.70;99.90
22130;DHT22;11231;50.746;4.272;2023-07-13T02:50:01;16.60;99.90
22130;DHT22;11231;50.746;4.272;2023-07-13T02:52:27;16.50;99.90
22130;DHT22;11231;50.746;4.272;2023-07-13T02:54:52;16.50;99.90
22130;DHT22;11231;50.746;4.272;2023-07-13T02:57:18;16.40;99.90
22130;DHT22;11231;50.746;4.272;2023-07-13T02:59:44;16.40;99.90
22130;DHT22;11231;50.746;4.272;2023-07-13T03:02:10;16.40;99.90
22130;DHT22;11231;50.746;4.272;2023-07-13T03:04:37;16.40;99.90
22130;DHT22;11231;50.746;4.272;2023-07-13T03:07:03;16.40;99.90
22130;DHT22;11231;50.746;4.272;2023-07-13T03:09:35;16.40;99.90
22130;DHT22;11231;50.746;4.272;2023-07-13T03:12:02;16.50;99.90
22130;DHT22;11231;50.746;4.272;2023-07-13T03:14:30;16.40;99.90
22130;DHT22;11231;50.746;4.272;2023-07-13T03:16:57;16.50;99.90
22130;DHT22;11231;50.746;4.272;2023-07-13T03:19:26;16.50;99.90
22130;DHT22;11231;50.746;4.272;2023-07-13T03:21:52;16.40;99.90
22130;DHT22;11231;50.746;4.272;2023-07-13T03:24:18;16.40;99.90
22130;DHT22;11231;50.746;4.272;2023-07-13T03:26:43;16.40;99.90
22130;DHT22;11231;50.746;4.272;2023-07-13T03:29:09;16.40;99.90
22130;DHT22;11231;50.746;4.272;2023-07-13T03:31:36;16.30;99.90
22130;DHT22;11231;50.746;4.272;2023-07-13T03:34:02;16.40;99.90
22130;DHT22;11231;50.746;4.272;2023-07-13T03:36:31;16.40;99.90
22130;DHT22;11231;50.746;4.272;2023-07-13T03:39:02;16.30;99.90
22130;DHT22;11231;50.746;4.272;2023-07-13T03:41:42;16.20;99.90
22130;DHT22;11231;50.746;4.272;2023-07-13T03:44:08;16.30;99.90
22130;DHT22;11231;50.746;4.272;2023-07-13T03:46:33;16.30;99.90
22130;DHT22;11231;50.746;4.272;2023-07-13T03:48:59;16.30;99.90
22130;DHT22;11231;50.746;4.272;2023-07-13T03:51:25;16.30;99.90
22130;DHT22;11231;50.746;4.272;2023-07-13T03:53:51;16.30;99.90
22130;DHT22;11231;50.746;4.272;2023-07-13T03:56:19;16.40;99.90
22130;DHT22;11231;50.746;4.272;2023-07-13T03:58:48;16.40;99.90
22130;DHT22;11231;50.746;4.272;2023-07-13T04:01:19;16.40;99.90
22130;DHT22;11231;50.746;4.272;2023-07-13T04:03:46;16.40;99.90
22130;DHT22;11231;50.746;4.272;2023-07-13T04:06:19;16.50;99.90
22130;DHT22;11231;50.746;4.272;2023-07-13T04:08:52;16.60;99.90
22130;DHT22;11231;50.746;4.272;2023-07-13T04:11:19;16.80;99.90
22130;DHT22;11231;50.746;4.272;2023-07-13T04:13:46;16.80;99.90
22130;DHT22;11231;50.746;4.272;2023-07-13T04:16:13;16.90;99.90
22130;DHT22;11231;50.746;4.272;2023-07-13T04:18:39;17.00;99.90
22130;DHT22;11231;50.746;4.272;2023-07-13T04:21:04;17.00;99.90
22130;DHT22;11231;50.746;4.272;2023-07-13T04:23:30;17.00;99.90
22130;DHT22;11231;50.746;4.272;2023-07-13T04:25:56;17.00;99.90
22130;DHT22;11231;50.746;4.272;2023-07-13T04:28:23;17.00;99.90
22130;DHT22;11231;50.746;4.272;2023-07-13T04:30:49;17.10;99.90
22130;DHT22;11231;50.746;4.272;2023-07-13T04:33:15;17.10;99.90
22130;DHT22;11231;50.746;4.272;2023-07-13T04:35:51;17.20;99.90
22130;DHT22;11231;50.746;4.272;2023-07-13T04:38:27;17.10;99.90
22130;DHT22;11231;50.746;4.272;2023-07-13T04:40:55;17.30;99.90
22130;DHT22;11231;50.746;4.272;2023-07-13T04:43:22;17.30;99.90
22130;DHT22;11231;50.746;4.272;2023-07-13T04:45:47;17.40;99.90
22130;DHT22;11231;50.746;4.272;2023-07-13T04:48:13;17.40;99.90
22130;DHT22;11231;50.746;4.272;2023-07-13T04:50:39;17.50;99.90
22130;DHT22;11231;50.746;4.272;2023-07-13T04:53:05;17.50;99.90
22130;DHT22;11231;50.746;4.272;2023-07-13T04:55:31;17.70;99.90
22130;DHT22;11231;50.746;4.272;2023-07-13T04:57:57;17.80;99.90
22130;DHT22;11231;50.746;4.272;2023-07-13T05:00:26;17.80;99.90
22130;DHT22;11231;50.746;4.272;2023-07-13T05:02:57;17.80;99.90
22130;DHT22;11231;50.746;4.272;2023-07-13T05:05:24;17.90;99.90
22130;DHT22;11231;50.746;4.272;2023-07-13T05:07:50;18.00;99.90
22130;DHT22;11231;50.746;4.272;2023-07-13T05:10:16;18.10;99.90
22130;DHT22;11231;50.746;4.272;2023-07-13T05:12:41;18.30;99.90
22130;DHT22;11231;50.746;4.272;2023-07-13T05:15:07;18.40;99.90
22130;DHT22;11231;50.746;4.272;2023-07-13T05:17:33;18.50;99.90
22130;DHT22;11231;50.746;4.272;2023-07-13T05:19:59;18.60;99.90
22130;DHT22;11231;50.746;4.272;2023-07-13T05:22:25;19.00;99.90
22130;DHT22;11231;50.746;4.272;2023-07-13T05:24:50;19.30;99.90
22130;DHT22;11231;50.746;4.272;2023-07-13T05:27:16;19.60;99.90
22130;DHT22;11231;50.746;4.272;2023-07-13T05:29:42;19.50;99.90
22130;DHT22;11231;50.746;4.272;2023-07-13T05:32:07;19.30;99.90
22130;DHT22;11231;50.746;4.272;2023-07-13T05:34:33;19.20;99.90
22130;DHT22;11231;50.746;4.272;2023-07-13T05:36:59;19.20;99.90
22130;DHT22;11231;50.746;4.272;2023-07-13T05:39:24;19.20;99.90
22130;DHT22;11231;50.746;4.272;2023-07-13T05:41:51;19.20;99.90
22130;DHT22;11231;50.746;4.272;2023-07-13T05:44:17;19.20;99.90
22130;DHT22;11231;50.746;4.272;2023-07-13T05:46:44;19.30;99.90
22130;DHT22;11231;50.746;4.272;2023-07-13T05:49:10;19.30;99.90
22130;DHT22;11231;50.746;4.272;2023-07-13T05:51:36;19.20;99.90
22130;DHT22;11231;50.746;4.272;2023-07-13T05:54:02;19.30;99.90
22130;DHT22;11231;50.746;4.272;2023-07-13T05:56:28;19.10;99.90
22130;DHT22;11231;50.746;4.272;2023-07-13T05:58:54;19.00;99.90
22130;DHT22;11231;50.746;4.272;2023-07-13T06:01:20;19.10;99.90
22130;DHT22;11231;50.746;4.272;2023-07-13T06:03:48;19.20;99.90
22130;DHT22;11231;50.746;4.272;2023-07-13T06:06:14;19.20;99.90
22130;DHT22;11231;50.746;4.272;2023-07-13T06:08:40;19.30;99.90
22130;DHT22;11231;50.746;4.272;2023-07-13T06:11:09;19.40;99.90
22130;DHT22;11231;50.746;4.272;2023-07-13T06:13:35;19.50;99.90
22130;DHT22;11231;50.746;4.272;2023-07-13T06:16:02;19.60;99.90
22130;DHT22;11231;50.746;4.272;2023-07-13T06:18:31;19.90;99.90
22130;DHT22;11231;50.746;4.272;2023-07-13T06:20:57;20.00;99.90
22130;DHT22;11231;50.746;4.272;2023-07-13T06:23:23;20.20;99.90
22130;DHT22;11231;50.746;4.272;2023-07-13T06:25:48;20.40;99.90
22130;DHT22;11231;50.746;4.272;2023-07-13T06:28:14;20.50;99.90
22130;DHT22;11231;50.746;4.272;2023-07-13T06:30:40;20.50;99.90
22130;DHT22;11231;50.746;4.272;2023-07-13T06:33:06;20.40;99.90
22130;DHT22;11231;50.746;4.272;2023-07-13T06:35:31;20.60;99.90
22130;DHT22;11231;50.746;4.272;2023-07-13T06:37:57;20.70;99.90
22130;DHT22;11231;50.746;4.272;2023-07-13T06:40:23;20.80;99.90
22130;DHT22;11231;50.746;4.272;2023-07-13T06:42:48;20.90;99.90
22130;DHT22;11231;50.746;4.272;2023-07-13T06:45:14;21.00;99.90
22130;DHT22;11231;50.746;4.272;2023-07-13T06:47:40;21.00;99.90
22130;DHT22;11231;50.746;4.272;2023-07-13T06:50:06;21.00;99.90
22130;DHT22;11231;50.746;4.272;2023-07-13T06:52:31;21.10;99.90
22130;DHT22;11231;50.746;4.272;2023-07-13T06:54:57;20.90;99.90
22130;DHT22;11231;50.746;4.272;2023-07-13T06:57:23;21.10;99.90
22130;DHT22;11231;50.746;4.272;2023-07-13T06:59:48;21.10;99.90
22130;DHT22;11231;50.746;4.272;2023-07-13T07:02:14;21.10;99.90
22130;DHT22;11231;50.746;4.272;2023-07-13T07:04:40;21.10;99.90
22130;DHT22;11231;50.746;4.272;2023-07-13T07:07:05;20.80;99.90
22130;DHT22;11231;50.746;4.272;2023-07-13T07:09:31;20.70;99.90
22130;DHT22;11231;50.746;4.272;2023-07-13T07:11:57;20.80;99.90
22130;DHT22;11231;50.746;4.272;2023-07-13T07:14:23;20.80;99.90
22130;DHT22;11231;50.746;4.272;2023-07-13T07:16:49;20.90;99.90
22130;DHT22;11231;50.746;4.272;2023-07-13T07:19:15;21.20;99.90
22130;DHT22;11231;50.746;4.272;2023-07-13T07:21:41;21.50;99.90
22130;DHT22;11231;50.746;4.272;2023-07-13T07:24:07;21.40;99.90
22130;DHT22;11231;50.746;4.272;2023-07-13T07:26:33;21.40;99.90
22130;DHT22;11231;50.746;4.272;2023-07-13T07:28:59;21.40;99.90
22130;DHT22;11231;50.746;4.272;2023-07-13T07:31:24;21.50;99.90
22130;DHT22;11231;50.746;4.272;2023-07-13T07:33:50;21.80;99.90
22130;DHT22;11231;50.746;4.272;2023-07-13T07:36:16;22.20;99.90
22130;DHT22;11231;50.746;4.272;2023-07-13T07:38:43;22.70;99.90
22130;DHT22;11231;50.746;4.272;2023-07-13T07:41:09;23.20;99.90
22130;DHT22;11231;50.746;4.272;2023-07-13T07:43:35;23.60;99.90
22130;DHT22;11231;50.746;4.272;2023-07-13T07:46:02;24.30;99.90
22130;DHT22;11231;50.746;4.272;2023-07-13T07:48:27;25.60;99.90
22130;DHT22;11231;50.746;4.272;2023-07-13T07:50:53;25.70;99.90
22130;DHT22;11231;50.746;4.272;2023-07-13T07:53:18;26.70;99.90
22130;DHT22;11231;50.746;4.272;2023-07-13T07:55:44;27.40;99.90
22130;DHT22;11231;50.746;4.272;2023-07-13T07:58:11;27.70;99.90
22130;DHT22;11231;50.746;4.272;2023-07-13T08:00:36;27.80;99.90
22130;DHT22;11231;50.746;4.272;2023-07-13T08:03:02;27.80;99.90
22130;DHT22;11231;50.746;4.272;2023-07-13T08:05:28;28.20;99.90
22130;DHT22;11231;50.746;4.272;2023-07-13T08:07:54;29.20;99.90
22130;DHT22;11231;50.746;4.272;2023-07-13T08:10:20;28.90;99.90
22130;DHT22;11231;50.746;4.272;2023-07-13T08:12:45;28.50;99.90
22130;DHT22;11231;50.746;4.272;2023-07-13T08:15:14;28.30;99.90
22130;DHT22;11231;50.746;4.272;2023-07-13T08:17:40;28.00;99.90
22130;DHT22;11231;50.746;4.272;2023-07-13T08:20:07;28.40;99.90
22130;DHT22;11231;50.746;4.272;2023-07-13T08:22:34;29.00;99.90
22130;DHT22;11231;50.746;4.272;2023-07-13T08:25:01;29.40;99.90
22130;DHT22;11231;50.746;4.272;2023-07-13T08:27:27;31.00;99.90
22130;DHT22;11231;50.746;4.272;2023-07-13T08:29:54;30.00;99.90
22130;DHT22;11231;50.746;4.272;2023-07-13T08:32:21;29.20;99.90
22130;DHT22;11231;50.746;4.272;2023-07-13T08:34:47;28.60;99.90
22130;DHT22;11231;50.746;4.272;2023-07-13T08:37:13;28.50;99.90
22130;DHT22;11231;50.746;4.272;2023-07-13T08:39:39;28.50;99.90
22130;DHT22;11231;50.746;4.272;2023-07-13T08:42:16;28.50;99.90
22130;DHT22;11231;50.746;4.272;2023-07-13T08:47:21;29.50;99.90
22130;DHT22;11231;50.746;4.272;2023-07-13T08:49:48;29.80;99.90
22130;DHT22;11231;50.746;4.272;2023-07-13T08:52:32;30.40;99.90
22130;DHT22;11231;50.746;4.272;2023-07-13T08:55:05;29.90;99.90
22130;DHT22;11231;50.746;4.272;2023-07-13T08:57:33;30.10;99.90
22130;DHT22;11231;50.746;4.272;2023-07-13T08:59:59;29.80;99.90
22130;DHT22;11231;50.746;4.272;2023-07-13T09:05:14;30.60;99.90
22130;DHT22;11231;50.746;4.272;2023-07-13T09:10:42;28.90;99.90
22130;DHT22;11231;50.746;4.272;2023-07-13T09:15:44;29.40;99.90
22130;DHT22;11231;50.746;4.272;2023-07-13T09:21:13;32.30;99.90
22130;DHT22;11231;50.746;4.272;2023-07-13T09:23:40;32.70;99.90
22130;DHT22;11231;50.746;4.272;2023-07-13T09:26:25;33.70;99.90
22130;DHT22;11231;50.746;4.272;2023-07-13T09:28:57;34.50;96.20
22130;DHT22;11231;50.746;4.272;2023-07-13T09:31:33;34.20;94.90
22130;DHT22;11231;50.746;4.272;2023-07-13T09:34:00;33.40;94.50
22130;DHT22;11231;50.746;4.272;2023-07-13T09:36:33;34.50;93.60
22130;DHT22;11231;50.746;4.272;2023-07-13T09:41:49;33.40;92.20
22130;DHT22;11231;50.746;4.272;2023-07-13T09:44:26;34.60;92.00
22130;DHT22;11231;50.746;4.272;2023-07-13T09:46:54;33.70;92.10
22130;DHT22;11231;50.746;4.272;2023-07-13T09:49:31;32.40;92.40
22130;DHT22;11231;50.746;4.272;2023-07-13T09:52:00;31.70;93.30
22130;DHT22;11231;50.746;4.272;2023-07-13T09:54:26;31.90;93.40
22130;DHT22;11231;50.746;4.272;2023-07-13T09:56:56;32.00;93.70
22130;DHT22;11231;50.746;4.272;2023-07-13T09:59:24;31.50;93.00
22130;DHT22;11231;50.746;4.272;2023-07-13T10:01:49;32.40;93.90
22130;DHT22;11231;50.746;4.272;2023-07-13T10:04:19;33.40;91.90
22130;DHT22;11231;50.746;4.272;2023-07-13T10:06:46;32.60;93.00
22130;DHT22;11231;50.746;4.272;2023-07-13T10:09:16;31.50;92.70
22130;DHT22;11231;50.746;4.272;2023-07-13T10:11:43;31.00;94.40
22130;DHT22;11231;50.746;4.272;2023-07-13T10:14:14;32.20;93.40
22130;DHT22;11231;50.746;4.272;2023-07-13T10:16:42;33.20;91.00
22130;DHT22;11231;50.746;4.272;2023-07-13T10:19:23;32.90;91.00
22130;DHT22;11231;50.746;4.272;2023-07-13T10:21:56;33.10;90.60
22130;DHT22;11231;50.746;4.272;2023-07-13T10:24:31;32.40;91.10
22130;DHT22;11231;50.746;4.272;2023-07-13T10:27:25;31.90;90.80
22130;DHT22;11231;50.746;4.272;2023-07-13T10:29:58;32.20;90.90
22130;DHT22;11231;50.746;4.272;2023-07-13T10:32:26;33.00;90.40
22130;DHT22;11231;50.746;4.272;2023-07-13T10:34:52;33.60;88.40
22130;DHT22;11231;50.746;4.272;2023-07-13T10:37:24;33.20;88.50
22130;DHT22;11231;50.746;4.272;2023-07-13T10:39:55;33.50;88.30
22130;DHT22;11231;50.746;4.272;2023-07-13T10:42:28;33.60;90.10
22130;DHT22;11231;50.746;4.272;2023-07-13T10:44:54;33.60;87.10
22130;DHT22;11231;50.746;4.272;2023-07-13T10:47:20;34.00;85.60
22130;DHT22;11231;50.746;4.272;2023-07-13T10:49:53;33.60;86.30
22130;DHT22;11231;50.746;4.272;2023-07-13T10:52:48;32.70;86.40
22130;DHT22;11231;50.746;4.272;2023-07-13T10:58:21;31.80;86.30
22130;DHT22;11231;50.746;4.272;2023-07-13T11:01:09;31.80;89.70
22130;DHT22;11231;50.746;4.272;2023-07-13T11:03:56;32.10;89.60
22130;DHT22;11231;50.746;4.272;2023-07-13T11:08:58;32.50;87.20
22130;DHT22;11231;50.746;4.272;2023-07-13T11:18:48;32.70;83.10
22130;DHT22;11231;50.746;4.272;2023-07-13T11:21:23;32.00;85.60
22130;DHT22;11231;50.746;4.272;2023-07-13T11:23:54;31.20;85.70
22130;DHT22;11231;50.746;4.272;2023-07-13T11:26:40;31.60;87.00
22130;DHT22;11231;50.746;4.272;2023-07-13T11:29:33;32.20;88.00
22130;DHT22;11231;50.746;4.272;2023-07-13T11:32:24;31.50;88.40
22130;DHT22;11231;50.746;4.272;2023-07-13T11:34:53;31.40;88.50
22130;DHT22;11231;50.746;4.272;2023-07-13T11:37:20;30.50;90.00
22130;DHT22;11231;50.746;4.272;2023-07-13T11:39:49;30.20;90.30
22130;DHT22;11231;50.746;4.272;2023-07-13T11:42:18;29.50;90.40
22130;DHT22;11231;50.746;4.272;2023-07-13T11:44:48;28.70;91.10
22130;DHT22;11231;50.746;4.272;2023-07-13T11:47:23;28.20;91.10
22130;DHT22;11231;50.746;4.272;2023-07-13T11:49:55;27.80;91.80
22130;DHT22;11231;50.746;4.272;2023-07-13T11:52:35;27.30;92.40
22130;DHT22;11231;50.746;4.272;2023-07-13T11:55:13;26.70;94.30
22130;DHT22;11231;50.746;4.272;2023-07-13T11:57:48;26.70;95.60
22130;DHT22;11231;50.746;4.272;2023-07-13T12:00:18;26.80;95.00
22130;DHT22;11231;50.746;4.272;2023-07-13T12:02:50;27.10;95.80
22130;DHT22;11231;50.746;4.272;2023-07-13T12:05:18;27.10;94.10
22130;DHT22;11231;50.746;4.272;2023-07-13T12:07:46;27.10;94.80
22130;DHT22;11231;50.746;4.272;2023-07-13T12:13:00;27.80;94.90
22130;DHT22;11231;50.746;4.272;2023-07-13T12:15:43;27.80;93.30
22130;DHT22;11231;50.746;4.272;2023-07-13T12:18:18;27.70;93.00
22130;DHT22;11231;50.746;4.272;2023-07-13T12:20:45;27.90;94.90
22130;DHT22;11231;50.746;4.272;2023-07-13T12:25:46;28.00;94.10
22130;DHT22;11231;50.746;4.272;2023-07-13T12:28:23;27.80;92.40
22130;DHT22;11231;50.746;4.272;2023-07-13T12:30:49;27.40;92.70
22130;DHT22;11231;50.746;4.272;2023-07-13T12:33:16;27.10;93.70
22130;DHT22;11231;50.746;4.272;2023-07-13T12:35:48;26.90;93.50
22130;DHT22;11231;50.746;4.272;2023-07-13T12:38:16;26.50;96.10
22130;DHT22;11231;50.746;4.272;2023-07-13T12:40:42;25.90;99.90
22130;DHT22;11231;50.746;4.272;2023-07-13T12:43:12;24.90;99.90
22130;DHT22;11231;50.746;4.272;2023-07-13T12:45:38;24.20;99.90
22130;DHT22;11231;50.746;4.272;2023-07-13T12:48:10;23.80;99.90
22130;DHT22;11231;50.746;4.272;2023-07-13T12:50:41;23.80;99.90
22130;DHT22;11231;50.746;4.272;2023-07-13T12:53:15;23.50;99.90
22130;DHT22;11231;50.746;4.272;2023-07-13T12:55:48;23.60;99.90
22130;DHT22;11231;50.746;4.272;2023-07-13T12:59:01;24.10;99.90
22130;DHT22;11231;50.746;4.272;2023-07-13T13:01:13;24.60;99.90
22130;DHT22;11231;50.746;4.272;2023-07-13T13:03:45;25.30;99.90
22130;DHT22;11231;50.746;4.272;2023-07-13T13:08:47;26.20;99.90
22130;DHT22;11231;50.746;4.272;2023-07-13T13:11:18;26.30;99.90
22130;DHT22;11231;50.746;4.272;2023-07-13T13:13:44;26.20;99.90
22130;DHT22;11231;50.746;4.272;2023-07-13T13:16:19;25.60;99.90
22130;DHT22;11231;50.746;4.272;2023-07-13T13:18:45;25.80;99.90
22130;DHT22;11231;50.746;4.272;2023-07-13T13:21:12;26.20;99.90
22130;DHT22;11231;50.746;4.272;2023-07-13T13:23:37;26.70;99.90
22130;DHT22;11231;50.746;4.272;2023-07-13T13:26:12;27.00;99.90
22130;DHT22;11231;50.746;4.272;2023-07-13T13:28:38;26.60;99.90
22130;DHT22;11231;50.746;4.272;2023-07-13T13:31:04;26.90;99.90
22130;DHT22;11231;50.746;4.272;2023-07-13T13:33:30;27.30;99.90
22130;DHT22;11231;50.746;4.272;2023-07-13T13:35:56;27.60;99.90
22130;DHT22;11231;50.746;4.272;2023-07-13T13:38:26;27.50;99.90
22130;DHT22;11231;50.746;4.272;2023-07-13T13:40:53;27.50;99.90
22130;DHT22;11231;50.746;4.272;2023-07-13T13:43:24;27.40;99.90
22130;DHT22;11231;50.746;4.272;2023-07-13T13:45:58;27.30;99.90
22130;DHT22;11231;50.746;4.272;2023-07-13T13:48:33;27.50;99.90
22130;DHT22;11231;50.746;4.272;2023-07-13T13:51:00;27.60;99.90
22130;DHT22;11231;50.746;4.272;2023-07-13T13:53:26;28.00;99.90
22130;DHT22;11231;50.746;4.272;2023-07-13T13:55:53;28.30;99.90
22130;DHT22;11231;50.746;4.272;2023-07-13T13:58:19;28.10;99.90
22130;DHT22;11231;50.746;4.272;2023-07-13T14:00:45;27.70;99.90
22130;DHT22;11231;50.746;4.272;2023-07-13T14:03:17;27.40;99.90
22130;DHT22;11231;50.746;4.272;2023-07-13T14:05:44;27.40;99.90
22130;DHT22;11231;50.746;4.272;2023-07-13T14:08:20;26.80;99.90
22130;DHT22;11231;50.746;4.272;2023-07-13T14:10:49;26.50;99.90
22130;DHT22;11231;50.746;4.272;2023-07-13T14:13:20;26.40;99.90
22130;DHT22;11231;50.746;4.272;2023-07-13T14:15:46;26.40;99.90
22130;DHT22;11231;50.746;4.272;2023-07-13T14:18:14;26.20;99.90
22130;DHT22;11231;50.746;4.272;2023-07-13T14:20:47;26.10;99.90
22130;DHT22;11231;50.746;4.272;2023-07-13T14:23:16;25.80;99.90
22130;DHT22;11231;50.746;4.272;2023-07-13T14:25:45;25.20;99.90
22130;DHT22;11231;50.746;4.272;2023-07-13T14:28:17;25.00;99.90
22130;DHT22;11231;50.746;4.272;2023-07-13T14:30:44;24.50;99.90
22130;DHT22;11231;50.746;4.272;2023-07-13T14:33:11;24.20;99.90
22130;DHT22;11231;50.746;4.272;2023-07-13T14:35:37;23.90;99.90
22130;DHT22;11231;50.746;4.272;2023-07-13T14:38:04;23.80;99.90
22130;DHT22;11231;50.746;4.272;2023-07-13T14:40:31;23.70;99.90
22130;DHT22;11231;50.746;4.272;2023-07-13T14:42:58;23.70;99.90
22130;DHT22;11231;50.746;4.272;2023-07-13T14:45:24;23.80;99.90
22130;DHT22;11231;50.746;4.272;2023-07-13T14:47:51;23.90;99.90
22130;DHT22;11231;50.746;4.272;2023-07-13T14:50:19;24.00;99.90
22130;DHT22;11231;50.746;4.272;2023-07-13T14:52:47;24.10;99.90
22130;DHT22;11231;50.746;4.272;2023-07-13T14:55:15;24.10;99.90
22130;DHT22;11231;50.746;4.272;2023-07-13T14:57:41;24.00;99.90
22130;DHT22;11231;50.746;4.272;2023-07-13T15:00:16;23.80;99.90
22130;DHT22;11231;50.746;4.272;2023-07-13T15:02:48;23.60;99.90
22130;DHT22;11231;50.746;4.272;2023-07-13T15:05:19;23.30;99.90
22130;DHT22;11231;50.746;4.272;2023-07-13T15:07:46;23.30;99.90
22130;DHT22;11231;50.746;4.272;2023-07-13T15:10:23;23.30;99.90
22130;DHT22;11231;50.746;4.272;2023-07-13T15:12:51;23.60;99.90
22130;DHT22;11231;50.746;4.272;2023-07-13T15:15:19;23.90;99.90
22130;DHT22;11231;50.746;4.272;2023-07-13T15:17:46;24.10;99.90
22130;DHT22;11231;50.746;4.272;2023-07-13T15:22:51;24.30;99.90
22130;DHT22;11231;50.746;4.272;2023-07-13T15:25:25;24.50;99.90
22130;DHT22;11231;50.746;4.272;2023-07-13T15:27:53;24.70;99.90
22130;DHT22;11231;50.746;4.272;2023-07-13T15:30:21;25.00;99.90
22130;DHT22;11231;50.746;4.272;2023-07-13T15:32:48;25.10;99.90
22130;DHT22;11231;50.746;4.272;2023-07-13T15:35:22;25.20;99.90
22130;DHT22;11231;50.746;4.272;2023-07-13T15:37:49;25.40;99.90
22130;DHT22;11231;50.746;4.272;2023-07-13T15:40:16;25.70;99.90
22130;DHT22;11231;50.746;4.272;2023-07-13T15:42:43;25.80;99.90
22130;DHT22;11231;50.746;4.272;2023-07-13T15:45:17;25.90;99.90
22130;DHT22;11231;50.746;4.272;2023-07-13T15:47:47;26.00;99.90
22130;DHT22;11231;50.746;4.272;2023-07-13T15:50:16;26.10;99.90
22130;DHT22;11231;50.746;4.272;2023-07-13T15:52:45;26.20;99.90
22130;DHT22;11231;50.746;4.272;2023-07-13T15:55:13;26.20;99.90
22130;DHT22;11231;50.746;4.272;2023-07-13T15:57:47;26.30;99.90
22130;DHT22;11231;50.746;4.272;2023-07-13T16:00:24;26.30;99.90
22130;DHT22;11231;50.746;4.272;2023-07-13T16:02:51;26.30;99.90
22130;DHT22;11231;50.746;4.272;2023-07-13T16:05:18;26.30;99.90
22130;DHT22;11231;50.746;4.272;2023-07-13T16:07:46;26.50;99.90
22130;DHT22;11231;50.746;4.272;2023-07-13T16:10:22;26.60;99.90
22130;DHT22;11231;50.746;4.272;2023-07-13T16:12:50;26.80;99.90
22130;DHT22;11231;50.746;4.272;2023-07-13T16:15:18;26.70;99.90
22130;DHT22;11231;50.746;4.272;2023-07-13T16:17:45;26.70;99.90